createdAt,value
2018-05-11T00:01:32.488Z,15.10
2018-05-11T00:04:00.105Z,15.20
2018-05-11T00:06:27.727Z,15.10
2018-05-11T00:08:56.115Z,15.10
2018-05-11T00:11:24.493Z,15.10
2018-05-11T00:13:52.888Z,15.10
2018-05-11T00:16:20.518Z,15.10
2018-05-11T00:18:48.902Z,15.10
2018-05-11T00:21:17.296Z,15.10
2018-05-11T00:23:44.910Z,15.00
2018-05-11T00:26:12.538Z,15.10
2018-05-11T00:28:40.160Z,15.10
2018-05-11T00:31:08.539Z,15.10
2018-05-11T00:33:36.933Z,15.10
2018-05-11T00:36:04.567Z,15.00
2018-05-11T00:38:33.204Z,15.10
2018-05-11T00:41:00.813Z,15.10
2018-05-11T00:43:29.207Z,15.20
2018-05-11T00:45:57.588Z,15.20
2018-05-11T00:48:25.199Z,15.20
2018-05-11T00:50:52.828Z,15.20
2018-05-11T00:53:20.444Z,15.20
2018-05-11T00:55:50.704Z,15.30
2018-05-11T00:58:18.336Z,15.30
2018-05-11T01:00:46.715Z,15.30
2018-05-11T01:03:15.136Z,15.30
2018-05-11T01:05:42.766Z,15.30
2018-05-11T01:08:11.146Z,15.30
2018-05-11T01:10:39.149Z,15.30
2018-05-11T01:13:06.772Z,15.40
2018-05-11T01:15:35.152Z,15.40
2018-05-11T01:18:02.762Z,15.40
2018-05-11T01:20:30.379Z,15.40
2018-05-11T01:22:58.001Z,15.50
2018-05-11T01:25:25.637Z,15.50
2018-05-11T01:27:53.251Z,15.50
2018-05-11T01:30:20.872Z,15.50
2018-05-11T01:32:48.491Z,15.50
2018-05-11T01:35:16.124Z,15.50
2018-05-11T01:37:44.502Z,15.50
2018-05-11T01:40:12.888Z,15.50
2018-05-11T01:42:40.781Z,15.50
2018-05-11T01:45:08.857Z,15.60
2018-05-11T01:47:36.493Z,15.60
2018-05-11T01:50:04.144Z,15.60
2018-05-11T01:52:31.763Z,15.60
2018-05-11T01:54:59.397Z,15.60
2018-05-11T01:57:27.003Z,15.60
2018-05-11T01:59:55.387Z,15.50
2018-05-11T02:02:23.779Z,15.50
2018-05-11T02:04:51.400Z,15.50
2018-05-11T02:07:19.033Z,15.50
2018-05-11T02:09:46.652Z,15.50
2018-05-11T02:12:15.036Z,15.50
2018-05-11T02:14:42.644Z,15.50
2018-05-11T02:17:10.268Z,15.50
2018-05-11T02:19:37.876Z,15.50
2018-05-11T02:22:05.502Z,15.40
2018-05-11T02:24:33.120Z,15.40
2018-05-11T02:27:01.496Z,15.30
2018-05-11T02:29:29.880Z,15.40
2018-05-11T02:31:58.281Z,15.30
2018-05-11T02:34:25.904Z,15.30
2018-05-11T02:36:54.330Z,15.30
2018-05-11T02:39:21.947Z,15.20
2018-05-11T02:41:50.356Z,15.20
2018-05-11T02:44:17.965Z,15.20
2018-05-11T02:46:45.606Z,15.20
2018-05-11T02:49:13.274Z,15.20
2018-05-11T02:51:40.897Z,15.20
2018-05-11T02:54:08.527Z,15.20
2018-05-11T02:56:36.909Z,15.10
2018-05-11T02:59:05.300Z,15.10
2018-05-11T03:01:33.680Z,15.10
2018-05-11T03:04:01.300Z,15.10
2018-05-11T03:06:28.924Z,15.10
2018-05-11T03:08:56.532Z,15.10
2018-05-11T03:11:24.951Z,15.10
2018-05-11T03:13:52.560Z,15.10
2018-05-11T03:16:20.190Z,15.10
2018-05-11T03:18:47.897Z,15.00
2018-05-11T03:21:15.714Z,15.10
2018-05-11T03:23:43.352Z,15.00
2018-05-11T03:26:11.012Z,15.00
2018-05-11T03:28:38.635Z,15.00
2018-05-11T03:31:06.264Z,15.00
2018-05-11T03:33:33.893Z,15.00
2018-05-11T03:36:01.509Z,15.00
2018-05-11T03:38:29.115Z,15.10
2018-05-11T03:40:56.755Z,15.10
2018-05-11T03:43:25.128Z,15.10
2018-05-11T03:45:53.512Z,15.10
2018-05-11T03:48:21.932Z,15.10
2018-05-11T03:50:49.539Z,15.00
2018-05-11T03:53:18.280Z,15.10
2018-05-11T03:55:46.779Z,15.10
2018-05-11T03:58:14.403Z,15.10
2018-05-11T04:00:42.025Z,15.10
2018-05-11T04:03:22.180Z,15.20
2018-05-11T04:06:00.372Z,15.20
2018-05-11T04:08:39.873Z,15.10
2018-05-11T04:11:07.516Z,15.10
2018-05-11T04:13:35.124Z,15.20
2018-05-11T04:16:02.744Z,15.20
2018-05-11T04:18:30.352Z,15.20
2018-05-11T04:20:57.980Z,15.20
2018-05-11T04:23:25.607Z,15.20
2018-05-11T04:25:53.227Z,15.30
2018-05-11T04:28:20.872Z,15.30
2018-05-11T04:30:48.480Z,15.30
2018-05-11T04:33:16.860Z,15.40
2018-05-11T04:35:45.236Z,15.40
2018-05-11T04:38:13.623Z,15.50
2018-05-11T04:40:41.247Z,15.40
2018-05-11T04:43:08.904Z,15.50
2018-05-11T04:45:36.525Z,15.50
2018-05-11T04:48:04.151Z,15.60
2018-05-11T04:50:32.548Z,15.60
2018-05-11T04:53:00.156Z,15.50
2018-05-11T04:55:27.779Z,15.60
2018-05-11T04:57:55.404Z,15.70
2018-05-11T05:00:24.143Z,15.80
2018-05-11T05:02:52.100Z,15.80
2018-05-11T05:05:19.707Z,15.90
2018-05-11T05:07:47.359Z,16.00
2018-05-11T05:10:14.978Z,16.10
2018-05-11T05:12:43.364Z,16.20
2018-05-11T05:15:11.018Z,16.20
2018-05-11T05:17:38.628Z,16.30
2018-05-11T05:20:07.012Z,16.40
2018-05-11T05:22:35.411Z,16.50
2018-05-11T05:25:03.036Z,16.50
2018-05-11T05:27:31.420Z,16.70
2018-05-11T05:29:59.808Z,16.80
2018-05-11T05:32:28.192Z,16.90
2018-05-11T05:34:55.828Z,16.80
2018-05-11T05:37:23.454Z,17.00
2018-05-11T05:39:51.059Z,17.00
2018-05-11T05:42:19.457Z,17.20
2018-05-11T05:44:47.095Z,17.10
2018-05-11T05:47:15.468Z,17.40
2018-05-11T05:49:44.209Z,17.50
2018-05-11T05:52:11.827Z,17.50
2018-05-11T05:54:40.553Z,17.70
2018-05-11T05:57:08.169Z,17.70
2018-05-11T05:59:36.563Z,17.90
2018-05-11T06:02:04.188Z,17.80
2018-05-11T06:04:31.827Z,18.00
2018-05-11T06:06:59.776Z,18.10
2018-05-11T06:09:27.412Z,18.30
2018-05-11T06:11:55.030Z,18.40
2018-05-11T06:14:22.644Z,18.70
2018-05-11T06:16:50.262Z,18.80
2018-05-11T06:19:18.651Z,18.80
2018-05-11T06:21:47.287Z,18.90
2018-05-11T06:24:14.909Z,18.90
2018-05-11T06:26:42.527Z,18.90
2018-05-11T06:29:10.469Z,18.90
2018-05-11T06:31:38.088Z,18.90
2018-05-11T06:34:06.491Z,19.10
2018-05-11T06:36:34.117Z,19.10
2018-05-11T06:39:02.516Z,19.40
2018-05-11T06:41:30.136Z,19.40
2018-05-11T06:43:57.763Z,19.80
2018-05-11T06:46:25.368Z,20.00
2018-05-11T06:48:53.764Z,19.80
2018-05-11T06:51:21.387Z,19.80
2018-05-11T06:53:48.995Z,20.00
2018-05-11T06:56:17.384Z,20.30
2018-05-11T06:58:45.060Z,20.30
2018-05-11T07:01:12.716Z,20.50
2018-05-11T07:03:40.344Z,20.70
2018-05-11T07:06:08.724Z,21.00
2018-05-11T07:08:36.349Z,20.90
2018-05-11T07:11:03.968Z,21.30
2018-05-11T07:13:31.583Z,21.40
2018-05-11T07:15:59.979Z,21.90
2018-05-11T07:18:28.368Z,22.10
2018-05-11T07:20:55.984Z,22.10
2018-05-11T07:23:23.596Z,22.20
2018-05-11T07:25:51.316Z,22.20
2018-05-11T07:28:18.852Z,22.10
2018-05-11T07:30:46.508Z,22.40
2018-05-11T07:33:14.131Z,22.20
2018-05-11T07:35:42.016Z,22.20
2018-05-11T07:38:09.637Z,22.20
2018-05-11T07:40:38.028Z,22.30
2018-05-11T07:43:05.664Z,22.30
2018-05-11T07:45:34.066Z,23.00
2018-05-11T07:48:01.689Z,23.00
2018-05-11T07:50:29.346Z,23.30
2018-05-11T07:52:56.974Z,23.30
2018-05-11T07:55:24.588Z,23.60
2018-05-11T07:57:53.317Z,23.80
2018-05-11T08:00:20.923Z,23.80
2018-05-11T08:02:48.572Z,23.90
2018-05-11T08:05:16.213Z,24.20
2018-05-11T08:07:43.830Z,24.60
2018-05-11T08:10:11.453Z,24.50
2018-05-11T08:12:39.077Z,24.50
2018-05-11T08:15:06.728Z,24.40
2018-05-11T08:17:34.345Z,24.60
2018-05-11T08:20:02.764Z,25.30
2018-05-11T08:22:30.408Z,25.30
2018-05-11T08:24:58.032Z,25.40
2018-05-11T08:27:25.670Z,25.30
2018-05-11T08:29:53.280Z,25.50
2018-05-11T08:32:21.668Z,26.10
2018-05-11T08:34:49.296Z,26.00
2018-05-11T08:37:17.229Z,26.80
2018-05-11T08:39:44.859Z,26.50
2018-05-11T08:42:12.501Z,26.50
2018-05-11T08:44:40.888Z,27.60
2018-05-11T08:47:09.285Z,27.90
2018-05-11T08:49:36.931Z,27.90
2018-05-11T08:52:04.540Z,27.00
2018-05-11T08:54:32.160Z,26.80
2018-05-11T08:56:59.797Z,27.00
2018-05-11T08:59:28.180Z,26.10
2018-05-11T09:01:56.596Z,26.70
2018-05-11T09:04:24.226Z,26.60
2018-05-11T09:06:51.877Z,26.80
2018-05-11T09:09:20.267Z,27.30
2018-05-11T09:11:47.903Z,27.30
2018-05-11T09:14:15.529Z,27.60
2018-05-11T09:16:43.180Z,27.70
2018-05-11T09:19:11.783Z,28.20
2018-05-11T09:21:39.780Z,28.10
2018-05-11T09:24:08.220Z,27.40
2018-05-11T09:26:35.874Z,27.40
2018-05-11T09:29:03.508Z,27.90
2018-05-11T09:31:31.297Z,28.30
2018-05-11T09:33:58.927Z,28.60
2018-05-11T09:36:26.562Z,28.40
2018-05-11T09:38:54.940Z,27.20
2018-05-11T09:41:23.352Z,27.50
2018-05-11T09:43:50.984Z,27.40
2018-05-11T09:46:19.384Z,27.20
2018-05-11T09:48:47.273Z,27.20
2018-05-11T09:51:14.888Z,27.10
2018-05-11T09:53:42.803Z,26.30
2018-05-11T09:56:10.417Z,26.30
2018-05-11T09:58:38.833Z,27.50
2018-05-11T10:01:06.443Z,27.40
2018-05-11T10:03:34.061Z,27.60
2018-05-11T10:06:01.733Z,27.90
2018-05-11T10:08:29.364Z,28.10
2018-05-11T10:10:57.759Z,28.10
2018-05-11T10:13:25.388Z,28.00
2018-05-11T10:15:52.994Z,27.80
2018-05-11T10:18:21.414Z,26.50
2018-05-11T10:20:49.828Z,25.70
2018-05-11T10:23:17.514Z,25.70
2018-05-11T10:25:45.197Z,26.30
2018-05-11T10:28:13.591Z,27.60
2018-05-11T10:30:41.988Z,27.60
2018-05-11T10:33:09.608Z,27.50
2018-05-11T10:35:37.255Z,28.00
2018-05-11T10:38:04.904Z,28.30
2018-05-11T10:40:32.534Z,28.70
2018-05-11T10:43:00.156Z,28.60
2018-05-11T10:45:27.807Z,28.50
2018-05-11T10:47:55.436Z,28.40
2018-05-11T10:50:23.056Z,25.90
2018-05-11T10:52:51.505Z,25.30
2018-05-11T10:55:19.145Z,25.20
2018-05-11T10:57:46.789Z,25.80
2018-05-11T11:00:14.416Z,26.40
2018-05-11T11:02:42.791Z,27.80
2018-05-11T11:05:11.196Z,28.20
2018-05-11T11:07:38.817Z,28.10
2018-05-11T11:10:07.212Z,28.90
2018-05-11T11:12:35.595Z,29.40
2018-05-11T11:15:03.216Z,29.40
2018-05-11T11:17:31.673Z,27.10
2018-05-11T11:19:59.372Z,27.00
2018-05-11T11:22:27.056Z,25.90
2018-05-11T11:24:54.714Z,26.00
2018-05-11T11:27:22.336Z,27.10
2018-05-11T11:29:49.997Z,28.30
2018-05-11T11:32:17.612Z,29.40
2018-05-11T11:34:45.306Z,29.80
2018-05-11T11:37:12.904Z,29.00
2018-05-11T11:39:41.296Z,29.20
2018-05-11T11:42:08.933Z,29.10
2018-05-11T11:44:37.370Z,29.30
2018-05-11T11:47:05.016Z,29.30
2018-05-11T11:49:32.631Z,29.20
2018-05-11T11:52:01.032Z,30.00
2018-05-11T11:54:28.672Z,29.90
2018-05-11T11:56:57.072Z,30.10
2018-05-11T11:59:24.694Z,30.00
2018-05-11T12:01:52.325Z,29.50
2018-05-11T12:04:19.952Z,29.50
2018-05-11T12:06:47.580Z,30.00
2018-05-11T12:09:15.193Z,30.50
2018-05-11T12:11:42.820Z,30.00
2018-05-11T12:14:11.222Z,29.60
2018-05-11T12:16:38.843Z,29.50
2018-05-11T12:19:06.464Z,28.70
2018-05-11T12:21:34.079Z,29.20
2018-05-11T12:24:02.473Z,30.50
2018-05-11T12:26:30.093Z,30.40
2018-05-11T12:28:57.723Z,29.70
2018-05-11T12:31:25.331Z,29.10
2018-05-11T12:33:53.719Z,27.70
2018-05-11T12:36:22.108Z,27.80
2018-05-11T12:38:49.723Z,27.80
2018-05-11T12:41:17.351Z,28.20
2018-05-11T12:43:44.973Z,29.80
2018-05-11T12:46:13.447Z,29.20
2018-05-11T12:48:41.056Z,29.20
2018-05-11T12:51:08.676Z,29.30
2018-05-11T12:53:37.071Z,30.00
2018-05-11T12:56:04.708Z,29.90
2018-05-11T12:58:33.103Z,30.30
2018-05-11T13:01:00.716Z,30.20
2018-05-11T13:03:28.346Z,29.70
2018-05-11T13:05:56.313Z,30.10
2018-05-11T13:08:23.942Z,29.60
2018-05-11T13:10:52.333Z,31.00
2018-05-11T13:13:19.952Z,30.90
2018-05-11T13:15:47.580Z,30.30
2018-05-11T13:18:15.209Z,29.50
2018-05-11T13:20:42.868Z,31.00
2018-05-11T13:23:10.485Z,30.30
2018-05-11T13:25:38.340Z,30.60
2018-05-11T13:28:06.011Z,31.40
2018-05-11T13:30:33.753Z,30.70
2018-05-11T13:33:01.292Z,30.40
2018-05-11T13:35:29.169Z,31.20
2018-05-11T13:37:56.803Z,30.30
2018-05-11T13:40:24.429Z,31.90
2018-05-11T13:42:52.816Z,33.20
2018-05-11T13:45:21.201Z,30.60
2018-05-11T13:47:49.600Z,29.50
2018-05-11T13:50:17.211Z,29.30
2018-05-11T13:52:44.838Z,29.80
2018-05-11T13:55:12.810Z,29.10
2018-05-11T13:57:40.426Z,29.70
2018-05-11T14:00:08.840Z,31.40
2018-05-11T14:02:36.475Z,31.30
2018-05-11T14:05:04.112Z,30.60
2018-05-11T14:07:31.754Z,30.60
2018-05-11T14:09:59.391Z,31.20
2018-05-11T14:12:27.016Z,31.70
2018-05-11T14:14:54.651Z,30.50
2018-05-11T14:17:22.281Z,28.70
2018-05-11T14:19:49.905Z,27.90
2018-05-11T14:22:17.799Z,27.40
2018-05-11T14:24:45.416Z,27.60
2018-05-11T14:27:14.140Z,28.60
2018-05-11T14:29:41.766Z,28.50
2018-05-11T14:32:09.388Z,30.90
2018-05-11T14:34:37.087Z,32.30
2018-05-11T14:37:04.725Z,31.30
2018-05-11T14:39:32.348Z,30.20
2018-05-11T14:41:59.993Z,31.10
2018-05-11T14:44:27.872Z,30.30
2018-05-11T14:46:55.504Z,30.30
2018-05-11T14:49:23.125Z,30.00
2018-05-11T14:51:50.750Z,30.70
2018-05-11T14:54:18.368Z,31.10
2018-05-11T14:56:46.773Z,30.60
2018-05-11T14:59:14.396Z,30.40
2018-05-11T15:01:42.815Z,31.70
2018-05-11T15:04:10.486Z,31.70
2018-05-11T15:06:38.112Z,32.10
2018-05-11T15:09:05.778Z,31.30
2018-05-11T15:11:33.404Z,31.30
2018-05-11T15:14:01.037Z,31.80
2018-05-11T15:16:28.652Z,31.10
2018-05-11T15:18:56.553Z,31.10
2018-05-11T15:21:24.172Z,31.50
2018-05-11T15:23:52.560Z,29.50
2018-05-11T15:26:20.173Z,29.40
2018-05-11T15:28:47.799Z,29.10
2018-05-11T15:31:15.862Z,28.60
2018-05-11T15:33:43.444Z,29.00
2018-05-11T15:36:11.080Z,29.70
2018-05-11T15:38:38.729Z,29.10
2018-05-11T15:41:06.381Z,29.10
2018-05-11T15:43:34.781Z,29.40
2018-05-11T15:46:02.401Z,29.30
2018-05-11T15:48:30.020Z,28.80
2018-05-11T15:50:57.648Z,29.10
2018-05-11T15:53:25.265Z,29.70
2018-05-11T15:55:53.202Z,29.50
2018-05-11T15:58:21.177Z,29.20
2018-05-11T16:00:48.821Z,28.50
2018-05-11T16:03:16.444Z,28.80
2018-05-11T16:05:44.862Z,28.30
2018-05-11T16:08:12.496Z,28.20
2018-05-11T16:10:40.888Z,28.50
2018-05-11T16:13:09.096Z,28.40
2018-05-11T16:15:36.727Z,27.50
2018-05-11T16:18:04.352Z,27.90
2018-05-11T16:20:32.785Z,27.60
2018-05-11T16:23:00.400Z,27.50
2018-05-11T16:25:28.776Z,27.00
2018-05-11T16:27:57.506Z,26.80
2018-05-11T16:30:25.125Z,26.70
2018-05-11T16:32:53.552Z,27.00
2018-05-11T16:35:21.176Z,26.90
2018-05-11T16:37:48.792Z,26.40
2018-05-11T16:40:16.432Z,27.40
2018-05-11T16:42:44.059Z,28.20
2018-05-11T16:45:11.684Z,28.50
2018-05-11T16:47:39.319Z,27.50
2018-05-11T16:50:07.046Z,26.70
2018-05-11T16:52:34.634Z,26.30
2018-05-11T16:55:03.012Z,26.20
2018-05-11T16:57:30.644Z,26.10
2018-05-11T16:59:58.268Z,25.50
2018-05-11T17:02:26.654Z,26.00
2018-05-11T17:04:55.036Z,26.10
2018-05-11T17:07:23.445Z,26.10
2018-05-11T17:09:51.061Z,26.00
2018-05-11T17:12:19.456Z,25.10
2018-05-11T17:14:47.828Z,24.40
2018-05-11T17:17:16.220Z,24.50
2018-05-11T17:19:43.833Z,24.40
2018-05-11T17:22:11.484Z,24.50
2018-05-11T17:24:39.113Z,24.20
2018-05-11T17:27:06.729Z,24.10
2018-05-11T17:29:34.366Z,24.10
2018-05-11T17:32:01.991Z,24.30
2018-05-11T17:34:29.873Z,24.00
2018-05-11T17:36:57.496Z,23.80
2018-05-11T17:39:25.871Z,22.80
2018-05-11T17:41:54.260Z,22.30
2018-05-11T17:44:22.646Z,22.00
2018-05-11T17:46:50.264Z,21.90
2018-05-11T17:49:17.888Z,21.60
2018-05-11T17:51:45.500Z,21.50
2018-05-11T17:54:14.134Z,21.30
2018-05-11T17:56:41.804Z,21.30
2018-05-11T17:59:09.420Z,21.20
2018-05-11T18:01:37.052Z,21.00
2018-05-11T18:04:04.979Z,20.90
2018-05-11T18:06:32.681Z,20.80
2018-05-11T18:09:00.272Z,20.80
2018-05-11T18:11:27.899Z,20.70
2018-05-11T18:13:55.525Z,20.60
2018-05-11T18:16:23.158Z,20.20
2018-05-11T18:18:50.792Z,19.90
2018-05-11T18:21:19.180Z,19.30
2018-05-11T18:23:47.561Z,19.00
2018-05-11T18:26:15.212Z,19.00
2018-05-11T18:28:43.590Z,18.60
2018-05-11T18:31:11.975Z,18.40
2018-05-11T18:33:40.371Z,18.30
2018-05-11T18:36:08.016Z,18.30
2018-05-11T18:38:36.408Z,18.00
2018-05-11T18:41:04.040Z,18.00
2018-05-11T18:43:32.436Z,17.60
2018-05-11T18:46:00.109Z,17.50
2018-05-11T18:48:27.740Z,17.50
2018-05-11T18:50:55.389Z,17.20
2018-05-11T18:53:23.300Z,17.20
2018-05-11T18:55:50.860Z,17.10
2018-05-11T18:58:18.540Z,17.10
2018-05-11T19:00:46.194Z,16.90
2018-05-11T19:03:13.896Z,16.90
2018-05-11T19:05:41.520Z,16.70
2018-05-11T19:08:09.150Z,16.70
2018-05-11T19:10:36.776Z,16.60
2018-05-11T19:13:04.419Z,16.50
2018-05-11T19:15:32.168Z,16.40
2018-05-11T19:18:00.208Z,16.30
2018-05-11T19:20:27.862Z,16.20
2018-05-11T19:22:55.584Z,16.20
2018-05-11T19:25:23.233Z,16.10
2018-05-11T19:27:50.864Z,16.00
2018-05-11T19:30:18.637Z,16.00
2018-05-11T19:32:46.355Z,15.90
2018-05-11T19:35:14.006Z,15.90
2018-05-11T19:37:41.664Z,15.80
2018-05-11T19:40:09.296Z,15.80
2018-05-11T19:42:36.924Z,15.80
2018-05-11T19:45:04.599Z,15.70
2018-05-11T19:47:32.234Z,15.80
2018-05-11T19:49:59.856Z,15.80
2018-05-11T19:52:27.508Z,15.70
2018-05-11T19:54:55.160Z,15.70
2018-05-11T19:57:22.805Z,15.60
2018-05-11T19:59:50.428Z,15.50
2018-05-11T20:02:18.812Z,15.50
2018-05-11T20:04:46.476Z,15.40
2018-05-11T20:07:14.105Z,15.40
2018-05-11T20:09:41.745Z,15.40
2018-05-11T20:12:09.360Z,15.40
2018-05-11T20:14:36.971Z,15.40
2018-05-11T20:17:04.616Z,15.40
2018-05-11T20:19:32.248Z,15.40
2018-05-11T20:21:59.934Z,15.40
2018-05-11T20:24:27.932Z,15.30
2018-05-11T20:26:55.599Z,15.30
2018-05-11T20:29:23.224Z,15.30
2018-05-11T20:31:50.836Z,15.30
2018-05-11T20:34:19.228Z,15.30
2018-05-11T20:36:46.862Z,15.30
2018-05-11T20:39:15.252Z,15.30
2018-05-11T20:41:43.639Z,15.30
2018-05-11T20:44:11.272Z,15.30
2018-05-11T20:46:39.667Z,15.20
2018-05-11T20:49:07.310Z,15.20
2018-05-11T20:51:34.932Z,15.20
2018-05-11T20:54:02.892Z,15.20
2018-05-11T20:56:30.539Z,15.20
2018-05-11T20:58:58.166Z,15.20
2018-05-11T21:01:26.539Z,15.10
2018-05-11T21:03:54.939Z,15.10
2018-05-11T21:06:22.560Z,15.00
2018-05-11T21:08:50.183Z,15.10
2018-05-11T21:11:17.798Z,15.00
2018-05-11T21:13:46.186Z,15.00
2018-05-11T21:16:14.584Z,15.00
2018-05-11T21:18:44.349Z,15.00
2018-05-11T21:21:12.277Z,15.00
2018-05-11T21:23:39.908Z,15.00
2018-05-11T21:26:08.306Z,14.80
2018-05-11T21:28:35.933Z,14.80
2018-05-11T21:31:04.325Z,14.70
2018-05-11T21:33:32.734Z,14.70
2018-05-11T21:36:00.355Z,14.70
2018-05-11T21:38:28.752Z,14.60
2018-05-11T21:40:56.457Z,14.60
2018-05-11T21:43:24.073Z,14.60
2018-05-11T21:45:51.696Z,14.60
2018-05-11T21:48:19.308Z,14.60
2018-05-11T21:50:46.937Z,14.60
2018-05-11T21:53:15.325Z,14.50
2018-05-11T21:55:43.218Z,14.50
2018-05-11T21:58:10.836Z,14.50
2018-05-11T22:00:39.240Z,14.50
2018-05-11T22:03:06.857Z,14.50
2018-05-11T22:05:34.481Z,14.50
2018-05-11T22:08:02.097Z,14.50
2018-05-11T22:10:30.484Z,14.50
2018-05-11T22:12:58.110Z,14.40
2018-05-11T22:15:25.729Z,14.50
2018-05-11T22:17:53.336Z,14.40
2018-05-11T22:20:20.967Z,14.40
2018-05-11T22:22:48.593Z,14.30
2018-05-11T22:25:16.211Z,14.30
2018-05-11T22:27:43.840Z,14.30
2018-05-11T22:30:11.501Z,14.30
2018-05-11T22:32:39.112Z,14.30
2018-05-11T22:35:07.492Z,14.30
2018-05-11T22:37:35.880Z,14.30
2018-05-11T22:40:03.512Z,14.30
2018-05-11T22:42:31.139Z,14.30
2018-05-11T22:44:58.767Z,14.30
2018-05-11T22:47:26.380Z,14.30
2018-05-11T22:49:54.001Z,14.30
2018-05-11T22:52:21.981Z,14.30
2018-05-11T22:54:49.592Z,14.30
2018-05-11T22:57:17.971Z,14.30
2018-05-11T22:59:46.348Z,14.30
2018-05-11T23:02:14.739Z,14.30
2018-05-11T23:04:42.366Z,14.30
2018-05-11T23:07:10.500Z,14.30
2018-05-11T23:09:38.124Z,14.30
2018-05-11T23:12:06.507Z,14.30
2018-05-11T23:14:34.897Z,14.20
2018-05-11T23:17:02.532Z,14.10
2018-05-11T23:19:30.912Z,14.20
2018-05-11T23:21:59.292Z,14.20
2018-05-11T23:24:27.665Z,14.20
2018-05-11T23:26:56.056Z,14.20
2018-05-11T23:29:24.445Z,14.20
2018-05-11T23:31:52.056Z,14.20
2018-05-11T23:34:19.681Z,14.30
2018-05-11T23:36:47.304Z,14.20
2018-05-11T23:39:15.676Z,14.30
2018-05-11T23:41:44.064Z,14.20
2018-05-11T23:44:12.436Z,14.20
2018-05-11T23:46:40.820Z,14.20
2018-05-11T23:49:09.200Z,14.10
2018-05-11T23:51:37.589Z,14.20
2018-05-11T23:54:05.251Z,14.10
2018-05-11T23:56:32.867Z,14.10
2018-05-11T23:59:00.492Z,14.10
